createdAt,value
2022-09-30T00:00:49.294Z,52.81
2022-09-30T00:04:17.891Z,52.94
2022-09-30T00:07:21.278Z,52.80
2022-09-30T00:10:24.414Z,52.32
2022-09-30T00:13:27.711Z,52.61
2022-09-30T00:16:34.264Z,52.24
2022-09-30T00:19:39.349Z,52.53
2022-09-30T00:22:42.545Z,52.54
2022-09-30T00:25:46.005Z,52.61
2022-09-30T00:28:52.912Z,52.53
2022-09-30T00:31:56.206Z,52.47
2022-09-30T00:35:01.143Z,52.71
2022-09-30T00:38:04.623Z,52.28
2022-09-30T00:41:07.655Z,52.58
2022-09-30T00:44:51.641Z,52.25
2022-09-30T00:47:57.051Z,52.49
2022-09-30T00:51:03.919Z,52.48
2022-09-30T00:54:13.501Z,52.44
2022-09-30T00:57:16.801Z,52.55
2022-09-30T01:00:20.657Z,52.46
2022-09-30T01:03:24.379Z,52.42
2022-09-30T01:06:29.627Z,52.50
2022-09-30T01:09:35.396Z,52.15
2022-09-30T01:12:38.780Z,52.44
2022-09-30T01:16:24.779Z,52.32
2022-09-30T01:19:53.805Z,52.42
2022-09-30T01:23:22.566Z,52.42
2022-09-30T01:26:53.306Z,52.74
2022-09-30T01:30:15.117Z,52.36
2022-09-30T01:33:29.243Z,52.43
2022-09-30T01:36:51.040Z,51.77
2022-09-30T01:40:04.562Z,52.15
2022-09-30T01:43:15.250Z,52.05
2022-09-30T01:46:32.083Z,52.10
2022-09-30T01:49:43.492Z,51.98
2022-09-30T01:52:54.622Z,51.73
2022-09-30T01:56:03.131Z,51.85
2022-09-30T01:59:11.532Z,51.78
2022-09-30T02:02:20.160Z,51.87
2022-09-30T02:05:30.592Z,51.90
2022-09-30T02:08:42.359Z,51.84
2022-09-30T02:11:45.840Z,51.84
2022-09-30T02:14:54.290Z,51.87
2022-09-30T02:18:01.585Z,51.74
2022-09-30T02:21:09.312Z,51.85
2022-09-30T02:24:18.309Z,51.68
2022-09-30T02:27:28.268Z,51.75
2022-09-30T02:30:32.399Z,51.79
2022-09-30T02:33:40.654Z,51.64
2022-09-30T02:36:52.836Z,51.64
2022-09-30T02:40:02.593Z,51.72
2022-09-30T02:43:07.096Z,51.48
2022-09-30T02:46:26.855Z,51.45
2022-09-30T02:49:33.620Z,51.60
2022-09-30T02:52:53.673Z,51.68
2022-09-30T02:56:14.212Z,51.47
2022-09-30T02:59:17.861Z,51.54
2022-09-30T03:02:22.603Z,51.42
2022-09-30T03:05:26.083Z,51.39
2022-09-30T03:08:31.418Z,51.35
2022-09-30T03:11:34.717Z,51.41
2022-09-30T03:14:58.555Z,51.26
2022-09-30T03:18:29.296Z,51.57
2022-09-30T03:21:52.595Z,51.39
2022-09-30T03:25:15.075Z,51.31
2022-09-30T03:28:26.137Z,51.24
2022-09-30T03:31:43.011Z,51.12
2022-09-30T03:35:06.314Z,51.35
2022-09-30T03:38:17.374Z,51.10
2022-09-30T03:41:30.022Z,51.07
2022-09-30T03:44:41.031Z,51.04
2022-09-30T03:47:48.627Z,50.95
2022-09-30T03:50:53.238Z,51.06
2022-09-30T03:53:57.895Z,51.13
2022-09-30T03:57:05.234Z,51.14
2022-09-30T04:00:10.597Z,51.05
2022-09-30T04:03:14.123Z,50.92
2022-09-30T04:06:17.418Z,51.03
2022-09-30T04:09:20.738Z,50.97
2022-09-30T04:12:25.850Z,50.79
2022-09-30T04:15:29.175Z,50.89
2022-09-30T04:18:32.833Z,50.86
2022-09-30T04:21:36.379Z,50.79
2022-09-30T04:24:40.492Z,50.95
2022-09-30T04:27:45.083Z,50.98
2022-09-30T04:30:48.496Z,50.79
2022-09-30T04:33:52.179Z,50.34
2022-09-30T04:36:55.448Z,50.62
2022-09-30T04:40:00.134Z,50.80
2022-09-30T04:43:04.992Z,50.79
2022-09-30T04:46:08.206Z,50.75
2022-09-30T04:49:11.535Z,50.79
2022-09-30T04:52:15.235Z,50.77
2022-09-30T04:55:19.338Z,50.84
2022-09-30T04:58:24.529Z,41.67
2022-09-30T05:01:28.181Z,42.17
2022-09-30T05:04:33.510Z,43.53
2022-09-30T05:07:37.025Z,46.84
2022-09-30T05:10:40.496Z,46.85
2022-09-30T05:13:45.329Z,45.81
2022-09-30T05:16:48.730Z,45.58
2022-09-30T05:19:51.865Z,46.28
2022-09-30T05:22:57.053Z,46.22
2022-09-30T05:26:00.889Z,46.09
2022-09-30T05:29:05.516Z,46.30
2022-09-30T05:32:08.783Z,46.20
2022-09-30T05:35:12.447Z,46.52
2022-09-30T05:38:15.698Z,46.40
2022-09-30T05:41:19.577Z,46.57
2022-09-30T05:44:24.276Z,46.60
2022-09-30T05:47:27.605Z,46.35
2022-09-30T05:50:30.898Z,46.59
2022-09-30T05:53:38.607Z,46.50
2022-09-30T05:56:41.925Z,46.90
2022-09-30T05:59:47.325Z,46.64
2022-09-30T06:02:53.205Z,46.60
2022-09-30T06:05:57.697Z,46.71
2022-09-30T06:09:00.999Z,46.52
2022-09-30T06:12:04.182Z,46.36
2022-09-30T06:15:10.929Z,46.54
2022-09-30T06:18:17.673Z,46.15
2022-09-30T06:21:22.725Z,46.22
2022-09-30T06:24:26.229Z,45.88
2022-09-30T06:27:29.240Z,45.90
2022-09-30T06:30:35.323Z,45.73
2022-09-30T06:33:38.902Z,45.91
2022-09-30T06:36:42.126Z,45.74
2022-09-30T06:39:45.474Z,45.74
2022-09-30T06:42:49.255Z,46.03
2022-09-30T06:46:01.726Z,45.88
2022-09-30T06:49:13.513Z,45.62
2022-09-30T06:52:17.019Z,45.77
2022-09-30T06:55:24.379Z,45.76
2022-09-30T06:58:27.608Z,45.61
2022-09-30T07:01:32.177Z,45.84
2022-09-30T07:04:35.356Z,45.68
2022-09-30T07:07:38.655Z,45.66
2022-09-30T07:10:41.721Z,45.59
2022-09-30T07:13:46.209Z,45.47
2022-09-30T07:16:52.757Z,45.52
2022-09-30T07:19:56.259Z,45.42
2022-09-30T07:23:00.200Z,45.37
2022-09-30T07:26:05.746Z,45.43
2022-09-30T07:29:09.146Z,45.37
2022-09-30T07:32:15.501Z,45.63
2022-09-30T07:35:19.256Z,45.27
2022-09-30T07:38:24.663Z,45.48
2022-09-30T07:41:29.211Z,45.17
2022-09-30T07:44:33.206Z,45.23
2022-09-30T07:47:38.010Z,45.35
2022-09-30T07:50:45.359Z,45.24
2022-09-30T07:53:50.994Z,45.09
2022-09-30T07:57:10.881Z,45.06
2022-09-30T08:00:40.565Z,45.32
2022-09-30T08:03:44.468Z,45.28
2022-09-30T08:06:50.628Z,45.31
2022-09-30T08:09:53.792Z,45.43
2022-09-30T08:12:59.267Z,45.39
2022-09-30T08:16:04.937Z,45.51
2022-09-30T08:19:16.070Z,45.47
2022-09-30T08:22:19.200Z,45.54
2022-09-30T08:25:22.583Z,45.56
2022-09-30T08:28:25.846Z,45.47
2022-09-30T08:31:29.789Z,45.48
2022-09-30T08:34:35.610Z,45.63
2022-09-30T08:37:39.027Z,45.55
2022-09-30T08:40:58.473Z,45.02
2022-09-30T08:44:16.419Z,45.31
2022-09-30T08:47:40.110Z,45.48
2022-09-30T08:50:57.870Z,45.66
2022-09-30T08:54:05.139Z,45.53
2022-09-30T08:57:08.894Z,45.65
2022-09-30T09:00:16.189Z,45.66
2022-09-30T09:03:21.120Z,45.86
2022-09-30T09:06:34.127Z,45.72
2022-09-30T09:09:54.141Z,45.74
2022-09-30T09:13:06.530Z,45.76
2022-09-30T09:16:15.372Z,45.71
2022-09-30T09:19:25.491Z,45.73
2022-09-30T09:22:31.713Z,45.58
2022-09-30T09:25:35.450Z,45.78
2022-09-30T09:28:44.975Z,45.71
2022-09-30T09:31:49.234Z,45.90
2022-09-30T09:34:59.012Z,45.95
2022-09-30T09:38:27.362Z,45.87
2022-09-30T09:41:40.843Z,45.95
2022-09-30T09:44:53.172Z,45.93
2022-09-30T09:47:58.097Z,46.09
2022-09-30T09:51:11.298Z,46.27
2022-09-30T09:54:19.968Z,46.22
2022-09-30T09:57:32.143Z,46.26
2022-09-30T10:00:53.042Z,46.20
2022-09-30T10:04:17.803Z,46.21
2022-09-30T10:07:21.420Z,46.15
2022-09-30T10:10:26.410Z,46.33
2022-09-30T10:13:32.581Z,46.21
2022-09-30T10:16:38.155Z,46.38
2022-09-30T10:19:50.926Z,46.44
2022-09-30T10:23:03.533Z,46.50
2022-09-30T10:26:20.108Z,46.51
2022-09-30T10:29:29.684Z,46.38
2022-09-30T10:32:33.926Z,46.42
2022-09-30T10:35:53.725Z,46.54
2022-09-30T10:39:04.178Z,46.28
2022-09-30T10:42:25.727Z,46.50
2022-09-30T10:45:36.677Z,46.44
2022-09-30T10:48:42.956Z,46.49
2022-09-30T10:51:47.338Z,46.54
2022-09-30T10:54:53.807Z,46.63
2022-09-30T10:58:21.143Z,46.46
2022-09-30T11:01:29.725Z,46.34
2022-09-30T11:04:39.089Z,46.50
2022-09-30T11:07:51.103Z,46.50
2022-09-30T11:11:05.813Z,46.47
2022-09-30T11:14:31.389Z,46.49
2022-09-30T11:17:43.740Z,46.11
2022-09-30T11:20:52.189Z,46.67
2022-09-30T11:24:01.822Z,46.54
2022-09-30T11:27:15.672Z,45.97
2022-09-30T11:30:22.784Z,46.53
2022-09-30T11:33:45.038Z,46.41
2022-09-30T11:36:58.641Z,46.42
2022-09-30T11:40:31.607Z,46.42
2022-09-30T11:43:55.295Z,46.42
2022-09-30T11:47:26.245Z,46.33
2022-09-30T11:50:53.519Z,46.75
2022-09-30T11:54:10.724Z,46.61
2022-09-30T11:57:20.872Z,46.45
2022-09-30T12:00:24.302Z,46.40
2022-09-30T12:03:35.186Z,46.45
2022-09-30T12:06:44.184Z,46.23
2022-09-30T12:09:51.459Z,46.34
2022-09-30T12:13:02.594Z,46.44
2022-09-30T12:16:12.862Z,46.31
2022-09-30T12:19:26.327Z,46.39
2022-09-30T12:22:34.356Z,46.25
2022-09-30T12:25:42.846Z,46.37
2022-09-30T12:29:10.246Z,46.35
2022-09-30T12:32:38.789Z,46.33
2022-09-30T12:36:29.485Z,46.50
2022-09-30T12:40:13.545Z,46.41
2022-09-30T12:43:52.193Z,46.32
2022-09-30T12:47:16.257Z,46.35
2022-09-30T12:50:24.541Z,46.47
2022-09-30T12:53:32.654Z,46.22
2022-09-30T12:56:37.817Z,46.28
2022-09-30T12:59:52.618Z,46.28
2022-09-30T13:02:58.923Z,46.26
2022-09-30T13:06:06.431Z,46.16
2022-09-30T13:09:23.277Z,46.30
2022-09-30T13:12:29.216Z,46.07
2022-09-30T13:15:44.168Z,46.34
2022-09-30T13:19:05.056Z,46.32
2022-09-30T13:22:56.235Z,46.19
2022-09-30T13:26:01.950Z,46.24
2022-09-30T13:29:39.942Z,46.07
2022-09-30T13:32:47.713Z,46.15
2022-09-30T13:35:53.003Z,46.20
2022-09-30T13:39:20.688Z,46.09
2022-09-30T13:42:30.016Z,46.05
2022-09-30T13:45:39.513Z,46.15
2022-09-30T13:48:52.290Z,46.00
2022-09-30T13:51:56.505Z,46.11
2022-09-30T13:55:07.471Z,46.20
2022-09-30T13:58:36.502Z,46.32
2022-09-30T14:02:22.498Z,46.27
2022-09-30T14:05:47.754Z,46.08
2022-09-30T14:09:06.418Z,46.30
2022-09-30T14:12:25.150Z,46.29
2022-09-30T14:15:48.217Z,46.35
2022-09-30T14:19:23.975Z,46.22
2022-09-30T14:22:30.235Z,46.28
2022-09-30T14:25:45.127Z,46.14
2022-09-30T14:28:57.434Z,46.31
2022-09-30T14:32:11.709Z,45.55
2022-09-30T14:35:20.085Z,46.06
2022-09-30T14:38:29.651Z,46.21
2022-09-30T14:41:34.935Z,46.16
2022-09-30T14:44:40.022Z,46.13
2022-09-30T14:47:49.105Z,46.27
2022-09-30T14:50:59.808Z,45.84
2022-09-30T14:54:03.242Z,46.01
2022-09-30T14:57:17.676Z,46.24
2022-09-30T15:00:31.677Z,46.21
2022-09-30T15:03:40.385Z,46.03
2022-09-30T15:06:47.781Z,46.02
2022-09-30T15:09:51.101Z,46.02
2022-09-30T15:12:56.238Z,46.18
2022-09-30T15:15:59.542Z,46.12
2022-09-30T15:19:04.113Z,46.10
2022-09-30T15:22:09.477Z,46.16
2022-09-30T15:25:14.638Z,46.18
2022-09-30T15:28:19.719Z,46.22
2022-09-30T15:31:27.232Z,46.47
2022-09-30T15:34:35.254Z,46.84
2022-09-30T15:37:38.694Z,46.66
2022-09-30T15:40:50.021Z,46.95
2022-09-30T15:43:54.784Z,46.37
2022-09-30T15:47:05.305Z,47.07
2022-09-30T15:50:37.656Z,47.05
2022-09-30T15:53:48.381Z,47.15
2022-09-30T15:56:52.293Z,46.92
2022-09-30T16:00:04.109Z,47.05
2022-09-30T16:03:28.964Z,47.33
2022-09-30T16:06:38.347Z,47.41
2022-09-30T16:09:50.652Z,47.53
2022-09-30T16:12:54.370Z,47.69
2022-09-30T16:15:59.529Z,47.73
2022-09-30T16:19:04.900Z,47.49
2022-09-30T16:22:36.678Z,47.40
2022-09-30T16:25:40.422Z,47.21
2022-09-30T16:28:44.094Z,47.25
2022-09-30T16:31:50.281Z,47.09
2022-09-30T16:34:53.881Z,46.91
2022-09-30T16:38:03.892Z,46.83
2022-09-30T16:41:07.439Z,47.24
2022-09-30T16:44:11.432Z,47.65
2022-09-30T16:47:19.327Z,47.53
2022-09-30T16:50:31.294Z,47.60
2022-09-30T16:53:37.486Z,46.90
2022-09-30T16:56:40.806Z,46.40
2022-09-30T16:59:44.264Z,46.09
2022-09-30T17:02:49.586Z,45.49
2022-09-30T17:05:53.839Z,45.84
2022-09-30T17:09:02.470Z,45.51
2022-09-30T17:12:06.398Z,44.97
2022-09-30T17:15:11.656Z,44.77
2022-09-30T17:18:15.359Z,44.72
2022-09-30T17:21:23.289Z,44.94
2022-09-30T17:24:30.064Z,44.38
2022-09-30T17:27:33.462Z,44.59
2022-09-30T17:30:37.722Z,44.85
2022-09-30T17:33:42.476Z,44.13
2022-09-30T17:36:45.693Z,44.16
2022-09-30T17:39:50.594Z,44.07
2022-09-30T17:43:08.687Z,43.88
2022-09-30T17:46:12.793Z,44.31
2022-09-30T17:49:20.692Z,44.22
2022-09-30T17:52:27.398Z,44.24
2022-09-30T17:55:34.586Z,44.42
2022-09-30T17:58:38.290Z,44.36
2022-09-30T18:01:41.914Z,44.42
2022-09-30T18:04:46.242Z,44.25
2022-09-30T18:07:49.290Z,44.46
2022-09-30T18:10:54.584Z,44.52
2022-09-30T18:14:00.131Z,44.39
2022-09-30T18:17:05.333Z,44.21
2022-09-30T18:20:12.304Z,43.92
2022-09-30T18:23:19.014Z,44.12
2022-09-30T18:26:25.035Z,44.32
2022-09-30T18:29:30.661Z,44.42
2022-09-30T18:32:34.388Z,44.11
2022-09-30T18:35:39.991Z,44.19
2022-09-30T18:38:43.769Z,44.40
2022-09-30T18:41:48.740Z,44.70
2022-09-30T18:44:52.345Z,44.72
2022-09-30T18:47:57.623Z,44.81
2022-09-30T18:51:04.063Z,44.89
2022-09-30T18:54:10.256Z,44.82
2022-09-30T18:57:15.706Z,45.28
2022-09-30T19:00:20.618Z,45.33
2022-09-30T19:03:24.028Z,45.65
2022-09-30T19:06:29.701Z,45.65
2022-09-30T19:09:33.329Z,45.58
2022-09-30T19:12:39.938Z,45.86
2022-09-30T19:15:44.445Z,46.01
2022-09-30T19:18:48.084Z,46.07
2022-09-30T19:21:51.303Z,46.45
2022-09-30T19:24:55.158Z,46.91
2022-09-30T19:28:00.167Z,47.42
2022-09-30T19:31:08.475Z,47.50
2022-09-30T19:34:25.968Z,47.09
2022-09-30T19:37:33.681Z,46.96
2022-09-30T19:40:37.659Z,46.88
2022-09-30T19:43:43.294Z,47.21
2022-09-30T19:46:47.151Z,47.94
2022-09-30T19:49:50.488Z,47.90
2022-09-30T19:52:57.295Z,47.73
2022-09-30T19:56:07.262Z,48.00
2022-09-30T19:59:13.127Z,48.59
2022-09-30T20:02:18.588Z,49.89
2022-09-30T20:05:23.720Z,50.29
2022-09-30T20:08:27.286Z,50.63
2022-09-30T20:11:34.303Z,50.52
2022-09-30T20:14:57.204Z,50.58
2022-09-30T20:18:00.331Z,50.62
2022-09-30T20:21:12.154Z,50.56
2022-09-30T20:24:17.788Z,50.86
2022-09-30T20:27:21.298Z,50.80
2022-09-30T20:30:26.977Z,50.52
2022-09-30T20:33:30.377Z,50.40
2022-09-30T20:36:34.947Z,50.32
2022-09-30T20:39:40.618Z,50.00
2022-09-30T20:42:43.863Z,50.22
2022-09-30T20:45:55.499Z,50.22
2022-09-30T20:49:00.402Z,50.27
2022-09-30T20:52:04.038Z,50.08
2022-09-30T20:55:08.097Z,50.19
2022-09-30T20:58:13.661Z,50.02
2022-09-30T21:01:20.470Z,50.08
2022-09-30T21:04:24.957Z,50.29
2022-09-30T21:07:28.317Z,49.96
2022-09-30T21:10:32.309Z,50.00
2022-09-30T21:13:38.179Z,50.08
2022-09-30T21:16:43.001Z,50.00
2022-09-30T21:19:46.280Z,50.06
2022-09-30T21:22:50.049Z,50.17
2022-09-30T21:25:58.348Z,49.94
2022-09-30T21:29:02.181Z,49.62
2022-09-30T21:32:06.923Z,50.00
2022-09-30T21:35:10.875Z,49.91
2022-09-30T21:38:17.658Z,49.95
2022-09-30T21:41:21.506Z,49.72
2022-09-30T21:44:25.640Z,50.10
2022-09-30T21:47:30.302Z,49.95
2022-09-30T21:50:35.456Z,49.98
2022-09-30T21:53:39.398Z,49.98
2022-09-30T21:56:43.893Z,49.79
2022-09-30T21:59:50.370Z,49.93
2022-09-30T22:02:54.846Z,49.81
2022-09-30T22:06:00.553Z,49.77
2022-09-30T22:09:04.428Z,50.21
2022-09-30T22:12:08.709Z,49.99
2022-09-30T22:15:12.261Z,50.07
2022-09-30T22:18:19.533Z,49.91
2022-09-30T22:21:23.593Z,49.90
2022-09-30T22:24:26.914Z,50.03
2022-09-30T22:27:30.121Z,50.10
2022-09-30T22:30:34.215Z,50.29
2022-09-30T22:33:56.334Z,50.08
2022-09-30T22:37:17.511Z,50.75
2022-09-30T22:40:20.495Z,50.49
2022-09-30T22:43:24.480Z,50.77
2022-09-30T22:46:29.278Z,50.91
2022-09-30T22:49:34.310Z,50.72
2022-09-30T22:52:37.359Z,50.82
2022-09-30T22:55:40.648Z,50.69
2022-09-30T22:58:44.876Z,51.05
2022-09-30T23:01:49.287Z,50.68
2022-09-30T23:04:54.358Z,50.55
2022-09-30T23:07:57.508Z,50.81
2022-09-30T23:11:01.231Z,50.38
2022-09-30T23:14:04.753Z,50.77
2022-09-30T23:17:07.868Z,50.97
2022-09-30T23:20:12.863Z,50.99
2022-09-30T23:23:16.547Z,50.86
2022-09-30T23:26:25.198Z,50.42
2022-09-30T23:29:28.501Z,51.06
2022-09-30T23:32:31.720Z,51.16
2022-09-30T23:35:36.461Z,51.08
2022-09-30T23:38:39.641Z,51.05
2022-09-30T23:41:46.277Z,51.03
2022-09-30T23:44:49.424Z,51.38
2022-09-30T23:47:57.450Z,50.91
2022-09-30T23:51:02.989Z,51.37
2022-09-30T23:54:06.192Z,51.66
2022-09-30T23:57:10.641Z,51.64
